ENJB weather

Jarlsberg Airfield
T√łnsberg, Vestfold, Norway

Public forecast

Using degrees Celsius for public forecast. Weather courtesy of forecast.io.

METAR (pilot weather report)

Closest report is Sandefjord Airport, Torp, 7.6 nm (14.0 km) SSW. Retrieved 2019/05/27 12:20 UTC (11 minutes ago):

ENTO 271220Z 14009KT 9999 -SHRA SCT019 BKN050 11/08 Q0997 NOSIG

TAF (pilot weather forecast)

Closest forecast is Sandefjord Airport, Torp, 7.6 nm (14.0 km) SSW. Retrieved 2019/05/27 12:00 UTC (31 minutes ago):

TAF TAF ENTO 271100Z 2712/2812 18008KT 9999 SCT015 BKN030 TEMPO 2715/2721 SHRA BKN015 SCT020CB BECMG 2800/2802 36012KT